Terminal Aerodrome Forecast
Issued by NWS Cleveland, OH

Home | Current Version | Previous Version | Graphics & Text | Print | Product List | Glossary On
Versions: 1 2 3 4 5 6 7 8 9 10 11 12 13 14 15 16 17 18
367
FTUS41 KCLE 121134
TAFMFD
TAF
KMFD 121134Z 1212/1312 22006KT P6SM OVC100
     FM121600 24012KT P6SM OVC040
     FM121900 26012G20KT 5SM -SHSN OVC025
      TEMPO 1222/1302 2SM -SHSN OVC012
     FM130500 31014G22KT P6SM SCT012 OVC020=

USA.gov is the U.S. government's official web portal to all federal, state and local government web resources and services.